Time;durP1;ratioP1;P1;durP2;ratioP2;P2;SDS_P1;SDS_P2;PMS_P1;PMS_P2;Temp;Humidity;BMP_temperature;BMP_pressure;BME280_temperature;BME280_humidity;BME280_pressure;Samples;Min_cycle;Max_cycle;Signal;HPM_P1;HPM_P2
2021/11/15 00:01:43;;;;;;;;;38.33;32.67;;;;;;;;4933897;28;44796;-84
2021/11/15 00:04:13;;;;;;;;;35.33;31.67;;;;;;;;4934135;28;45404;-84
2021/11/15 00:06:38;;;;;;;;;42.33;38.00;;;;;;;;4916834;28;45323;-84
2021/11/15 00:09:03;;;;;;;;;42.67;36.00;;;;;;;;4932484;28;45655;-84
2021/11/15 00:11:30;;;;;;;;;37.67;34.67;;;;;;;;4897731;29;45440;-84
2021/11/15 00:13:56;;;;;;;;;34.00;32.67;;;;;;;;4897420;29;45430;-84
2021/11/15 00:16:22;;;;;;;;;32.00;30.00;;;;;;;;4897853;28;45410;-84
2021/11/15 00:18:47;;;;;;;;;43.67;36.33;;;;;;;;4896596;29;47344;-84
2021/11/15 00:21:13;;;;;;;;;47.67;40.33;;;;;;;;4913634;28;44732;-85
2021/11/15 00:23:38;;;;;;;;;46.33;36.67;;;;;;;;4913746;29;45402;-84
2021/11/15 00:26:04;;;;;;;;;43.00;36.00;;;;;;;;4895595;29;45351;-85
2021/11/15 00:28:29;;;;;;;;;39.00;34.67;;;;;;;;4912444;28;45412;-85
2021/11/15 00:30:54;;;;;;;;;45.33;39.00;;;;;;;;4895458;29;45609;-84
2021/11/15 00:33:20;;;;;;;;;45.00;38.00;;;;;;;;4896506;29;45600;-84
2021/11/15 00:35:49;;;;;;;;;40.67;36.33;;;;;;;;4913995;29;45396;-84
2021/11/15 00:38:14;;;;;;;;;43.67;38.67;;;;;;;;4895597;29;47017;-85
2021/11/15 00:40:39;;;;;;;;;46.33;38.33;;;;;;;;4914109;28;45345;-84
2021/11/15 00:43:06;;;;;;;;;43.67;39.33;;;;;;;;4878689;28;45487;-84
2021/11/15 00:45:31;;;;;;;;;46.33;38.00;;;;;;;;4894981;29;45626;-84
2021/11/15 00:47:56;;;;;;;;;43.33;36.33;;;;;;;;4895387;29;45342;-84
2021/11/15 00:50:22;;;;;;;;;40.33;35.67;;;;;;;;4878855;28;45481;-84
2021/11/15 00:52:49;;;;;;;;;47.33;38.00;;;;;;;;4878915;29;45536;-84
2021/11/15 00:55:16;;;;;;;;;41.67;38.00;;;;;;;;4893440;29;45490;-84
2021/11/15 00:57:42;;;;;;;;;35.67;30.00;;;;;;;;4893335;29;45724;-84
2021/11/15 01:00:09;;;;;;;;;44.67;37.33;;;;;;;;4893173;29;44780;-84
2021/11/15 01:02:34;;;;;;;;;43.33;39.00;;;;;;;;4875702;29;45429;-84
2021/11/15 01:05:00;;;;;;;;;43.33;38.00;;;;;;;;4891590;29;45158;-84
2021/11/15 01:07:25;;;;;;;;;53.33;39.33;;;;;;;;4875599;28;47243;-84
2021/11/15 01:09:50;;;;;;;;;43.00;34.33;;;;;;;;4892922;28;45437;-84
2021/11/15 01:12:16;;;;;;;;;45.33;38.00;;;;;;;;4929580;28;45484;-84
2021/11/15 01:14:41;;;;;;;;;50.67;42.00;;;;;;;;4913136;28;45403;-84
2021/11/15 01:17:06;;;;;;;;;50.33;38.67;;;;;;;;4913800;28;47432;-84
2021/11/15 01:19:31;;;;;;;;;39.67;38.00;;;;;;;;4912986;28;45390;-84
2021/11/15 01:21:57;;;;;;;;;47.33;38.00;;;;;;;;4912939;28;45405;-84
2021/11/15 01:24:22;;;;;;;;;52.67;38.00;;;;;;;;4930255;28;45473;-84
2021/11/15 01:26:47;;;;;;;;;44.00;40.33;;;;;;;;4931409;28;45424;-84
2021/11/15 01:29:12;;;;;;;;;42.00;37.33;;;;;;;;4931531;28;45254;-84
2021/11/15 01:31:39;;;;;;;;;44.00;37.00;;;;;;;;4932731;28;45594;-84
2021/11/15 01:34:05;;;;;;;;;36.67;32.00;;;;;;;;4914679;28;44812;-84
2021/11/15 01:36:31;;;;;;;;;36.33;32.67;;;;;;;;4914539;28;47714;-84
2021/11/15 01:38:56;;;;;;;;;51.33;39.67;;;;;;;;4914562;28;45437;-84
2021/11/15 01:41:22;;;;;;;;;40.67;35.33;;;;;;;;4931480;28;45439;-84
2021/11/15 01:46:50;;;;;;;;;34.00;32.33;;;;;;;;4931705;28;45489;-84
2021/11/15 01:49:19;;;;;;;;;37.67;33.00;;;;;;;;4931015;28;45908;-84
2021/11/15 01:51:44;;;;;;;;;32.00;30.00;;;;;;;;4930534;28;45515;-84
2021/11/15 01:54:10;;;;;;;;;30.00;30.00;;;;;;;;4930741;28;45382;-84
2021/11/15 01:56:36;;;;;;;;;40.33;33.67;;;;;;;;4912150;28;47741;-85
2021/11/15 01:59:02;;;;;;;;;39.00;35.33;;;;;;;;4912494;28;45469;-84
2021/11/15 02:01:28;;;;;;;;;42.67;31.00;;;;;;;;4929404;28;45386;-85
2021/11/15 02:03:53;;;;;;;;;39.67;35.33;;;;;;;;4913222;28;45373;-85
2021/11/15 02:06:19;;;;;;;;;35.33;35.33;;;;;;;;4913363;28;46674;-84
2021/11/15 02:08:44;;;;;;;;;44.67;34.33;;;;;;;;4930670;28;45341;-84
2021/11/15 02:11:09;;;;;;;;;34.67;32.00;;;;;;;;4912640;28;45465;-85
2021/11/15 02:13:35;;;;;;;;;41.67;36.00;;;;;;;;4913973;28;44844;-85
2021/11/15 02:16:01;;;;;;;;;37.00;36.33;;;;;;;;4930286;28;45926;-85
2021/11/15 02:18:26;;;;;;;;;37.00;34.33;;;;;;;;4932466;28;45925;-84
2021/11/15 02:20:55;;;;;;;;;44.33;37.67;;;;;;;;4913420;28;45623;-84
2021/11/15 02:23:21;;;;;;;;;46.67;36.67;;;;;;;;4931537;28;45326;-85
2021/11/15 02:25:49;;;;;;;;;43.33;36.00;;;;;;;;4931728;28;46634;-84
2021/11/15 02:28:14;;;;;;;;;47.00;36.33;;;;;;;;4914575;28;45625;-84
2021/11/15 02:30:39;;;;;;;;;42.00;38.00;;;;;;;;4912703;28;45322;-84
2021/11/15 02:33:05;;;;;;;;;50.33;39.33;;;;;;;;4913912;28;45551;-84
2021/11/15 02:35:30;;;;;;;;;39.00;36.00;;;;;;;;4912666;28;47413;-85
2021/11/15 02:37:56;;;;;;;;;44.67;36.67;;;;;;;;4930173;28;44989;-85
2021/11/15 02:40:22;;;;;;;;;42.67;35.67;;;;;;;;4913446;28;45983;-84
2021/11/15 02:42:48;;;;;;;;;40.00;35.33;;;;;;;;4930305;28;45329;-85
2021/11/15 02:45:14;;;;;;;;;48.33;39.00;;;;;;;;4929681;28;45396;-84
2021/11/15 02:47:40;;;;;;;;;39.67;36.00;;;;;;;;4913041;28;45430;-84
2021/11/15 02:50:06;;;;;;;;;44.67;37.33;;;;;;;;4913605;28;45479;-84
2021/11/15 02:52:31;;;;;;;;;41.33;38.00;;;;;;;;4919949;28;45529;-85
2021/11/15 02:54:59;;;;;;;;;46.00;39.00;;;;;;;;4893981;29;47475;-85
2021/11/15 02:57:25;;;;;;;;;48.00;39.33;;;;;;;;4895324;28;45368;-85
2021/11/15 02:59:50;;;;;;;;;46.33;39.00;;;;;;;;4911075;29;44813;-84
2021/11/15 03:02:16;;;;;;;;;36.33;31.67;;;;;;;;4914756;28;44867;-84
2021/11/15 03:04:43;;;;;;;;;47.00;37.00;;;;;;;;4895585;29;46955;-84
2021/11/15 03:07:09;;;;;;;;;44.33;39.67;;;;;;;;4894664;29;45302;-84
2021/11/15 03:09:34;;;;;;;;;45.67;37.33;;;;;;;;4893706;29;45539;-84
2021/11/15 03:11:59;;;;;;;;;44.00;37.67;;;;;;;;4875587;28;45550;-84
2021/11/15 03:14:25;;;;;;;;;39.33;34.33;;;;;;;;4875786;28;46640;-85
2021/11/15 03:16:51;;;;;;;;;51.33;41.00;;;;;;;;4892100;29;45281;-84
2021/11/15 03:19:16;;;;;;;;;46.00;36.00;;;;;;;;4873271;29;45408;-85
2021/11/15 03:21:41;;;;;;;;;48.33;40.00;;;;;;;;4874484;29;45535;-85
2021/11/15 03:24:07;;;;;;;;;44.33;39.00;;;;;;;;4873610;29;48381;-84
2021/11/15 03:26:32;;;;;;;;;50.00;39.33;;;;;;;;4874160;29;45405;-85
2021/11/15 03:28:58;;;;;;;;;48.67;40.00;;;;;;;;4874788;29;45493;-84
2021/11/15 03:34:27;;;;;;;;;42.33;37.33;;;;;;;;4890010;29;45347;-85
2021/11/15 03:36:52;;;;;;;;;44.67;38.67;;;;;;;;4871448;29;45392;-85
2021/11/15 03:39:17;;;;;;;;;48.00;39.67;;;;;;;;4873624;29;45416;-85
2021/11/15 03:41:43;;;;;;;;;45.33;38.67;;;;;;;;4875128;29;45300;-85
2021/11/15 03:44:09;;;;;;;;;48.00;39.00;;;;;;;;4874638;29;46876;-85
2021/11/15 03:46:35;;;;;;;;;41.67;39.00;;;;;;;;4874558;29;45591;-85
2021/11/15 03:49:00;;;;;;;;;47.33;40.67;;;;;;;;4873290;29;45562;-84
2021/11/15 03:51:25;;;;;;;;;52.33;40.67;;;;;;;;4874188;29;45800;-84
2021/11/15 03:53:51;;;;;;;;;44.33;39.33;;;;;;;;4873272;29;47010;-85
2021/11/15 03:56:18;;;;;;;;;43.33;37.67;;;;;;;;4873603;29;45885;-84
2021/11/15 03:58:50;;;;;;;;;53.33;40.00;;;;;;;;4874303;29;45469;-84
2021/11/15 04:01:15;;;;;;;;;39.67;37.33;;;;;;;;4873717;29;45460;-84
2021/11/15 04:03:42;;;;;;;;;49.67;39.00;;;;;;;;4873066;29;46823;-84
2021/11/15 04:06:21;;;;;;;;;54.67;43.33;;;;;;;;4873387;29;45869;-85
2021/11/15 04:08:47;;;;;;;;;47.33;39.67;;;;;;;;4890279;28;45439;-84
2021/11/15 04:11:12;;;;;;;;;45.00;37.33;;;;;;;;4888770;29;45430;-84
2021/11/15 04:13:40;;;;;;;;;44.67;39.00;;;;;;;;4892576;28;47661;-84
2021/11/15 04:16:08;;;;;;;;;46.67;36.67;;;;;;;;4908046;28;45497;-84
2021/11/15 04:21:37;;;;;;;;;55.00;40.33;;;;;;;;4913065;29;45863;-84
2021/11/15 04:24:03;;;;;;;;;46.33;39.00;;;;;;;;4896171;29;46971;-84
2021/11/15 04:26:28;;;;;;;;;48.33;39.67;;;;;;;;4913281;29;45468;-84
2021/11/15 04:28:55;;;;;;;;;48.67;37.33;;;;;;;;4893410;29;45515;-84
2021/11/15 04:31:21;;;;;;;;;43.00;37.00;;;;;;;;4912328;28;45403;-85
2021/11/15 04:33:46;;;;;;;;;52.67;39.33;;;;;;;;4895857;29;46703;-85
2021/11/15 04:36:11;;;;;;;;;48.00;39.33;;;;;;;;4896602;29;45431;-84
2021/11/15 04:38:37;;;;;;;;;48.33;40.00;;;;;;;;4895012;29;45561;-85
2021/11/15 04:41:02;;;;;;;;;36.00;34.33;;;;;;;;4896978;29;45750;-85
2021/11/15 04:43:27;;;;;;;;;46.33;38.33;;;;;;;;4896598;29;47189;-85
2021/11/15 04:45:52;;;;;;;;;42.33;36.33;;;;;;;;4913622;28;45439;-84
2021/11/15 04:48:18;;;;;;;;;52.00;41.33;;;;;;;;4894953;29;45513;-84
2021/11/15 04:50:43;;;;;;;;;44.00;35.33;;;;;;;;4912761;28;45533;-84
2021/11/15 04:53:14;;;;;;;;;45.67;39.33;;;;;;;;4895603;28;48322;-85
2021/11/15 04:55:40;;;;;;;;;53.33;39.00;;;;;;;;4894949;29;45305;-84
2021/11/15 04:58:05;;;;;;;;;40.00;35.00;;;;;;;;4912462;28;45559;-84
2021/11/15 05:00:32;;;;;;;;;45.33;40.00;;;;;;;;4895182;28;45296;-84
2021/11/15 05:02:57;;;;;;;;;48.67;40.00;;;;;;;;4914013;29;45358;-84
2021/11/15 05:05:23;;;;;;;;;54.33;41.67;;;;;;;;4897121;28;45920;-84
2021/11/15 05:07:54;;;;;;;;;44.67;38.00;;;;;;;;4914449;28;45356;-85
2021/11/15 05:10:20;;;;;;;;;45.67;39.33;;;;;;;;4899003;28;45370;-85
2021/11/15 05:12:46;;;;;;;;;50.33;39.33;;;;;;;;4894813;29;47369;-84
2021/11/15 05:15:12;;;;;;;;;41.67;34.67;;;;;;;;4896342;29;45787;-85
2021/11/15 05:17:38;;;;;;;;;49.00;40.33;;;;;;;;4914148;28;45329;-85
2021/11/15 05:20:05;;;;;;;;;55.67;43.00;;;;;;;;4894629;29;45133;-83
2021/11/15 05:22:30;;;;;;;;;45.00;38.33;;;;;;;;4895483;29;47191;-84
2021/11/15 05:28:00;;;;;;;;;52.00;43.67;;;;;;;;4912004;28;45371;-84
2021/11/15 05:30:25;;;;;;;;;44.67;39.67;;;;;;;;4910281;28;45450;-84
2021/11/15 05:32:51;;;;;;;;;48.33;40.67;;;;;;;;4893815;29;47287;-85
2021/11/15 05:35:17;;;;;;;;;53.67;40.33;;;;;;;;4893673;29;45790;-85
2021/11/15 05:37:43;;;;;;;;;43.33;37.67;;;;;;;;4910930;28;45447;-84
2021/11/15 05:40:11;;;;;;;;;46.33;39.33;;;;;;;;4911806;29;45430;-84
2021/11/15 05:42:36;;;;;;;;;51.67;41.00;;;;;;;;4911982;28;46838;-85
2021/11/15 05:45:03;;;;;;;;;45.00;38.67;;;;;;;;4893667;29;45417;-83
2021/11/15 05:47:28;;;;;;;;;44.67;39.33;;;;;;;;4911222;29;45347;-85
2021/11/15 05:49:53;;;;;;;;;39.00;36.67;;;;;;;;4893580;29;45321;-84
2021/11/15 05:55:51;;;;;;;;;53.67;41.33;;;;;;;;4909994;29;45434;-85
2021/11/15 05:58:17;;;;;;;;;43.33;38.00;;;;;;;;4910452;28;45478;-85
2021/11/15 06:00:42;;;;;;;;;48.67;40.00;;;;;;;;4912434;28;45402;-85
2021/11/15 06:03:08;;;;;;;;;43.00;39.67;;;;;;;;4895635;29;45535;-85
2021/11/15 06:05:33;;;;;;;;;44.00;38.67;;;;;;;;4894320;29;45368;-84
2021/11/15 06:07:58;;;;;;;;;42.00;38.67;;;;;;;;4894721;29;45479;-85
2021/11/15 06:10:24;;;;;;;;;48.67;40.33;;;;;;;;4893799;29;45423;-84
2021/11/15 06:12:50;;;;;;;;;48.67;39.00;;;;;;;;4910515;28;45395;-84
2021/11/15 06:15:16;;;;;;;;;49.67;41.33;;;;;;;;4893280;29;45612;-84
2021/11/15 06:17:42;;;;;;;;;47.00;39.33;;;;;;;;4895714;29;45779;-85
2021/11/15 06:20:08;;;;;;;;;44.67;39.00;;;;;;;;4896269;28;45466;-84
2021/11/15 06:22:33;;;;;;;;;47.00;40.33;;;;;;;;4894190;29;46740;-84
2021/11/15 06:25:02;;;;;;;;;48.50;38.00;;;;;;;;4893216;29;45476;-84
2021/11/15 06:27:28;;;;;;;;;40.00;34.33;;;;;;;;4910690;28;45411;-84
2021/11/15 06:29:53;;;;;;;;;44.33;38.00;;;;;;;;4895882;29;44832;-84
2021/11/15 06:32:18;;;;;;;;;35.67;34.00;;;;;;;;4894817;29;47503;-84
2021/11/15 06:34:43;;;;;;;;;46.67;39.33;;;;;;;;4894589;29;45324;-85
2021/11/15 06:37:09;;;;;;;;;41.33;37.33;;;;;;;;4912805;28;45386;-84
2021/11/15 06:39:34;;;;;;;;;38.67;32.67;;;;;;;;4913162;28;45238;-84
2021/11/15 06:42:00;;;;;;;;;44.00;38.33;;;;;;;;4895989;29;46751;-84
2021/11/15 06:44:26;;;;;;;;;40.00;36.33;;;;;;;;4895528;29;45454;-84
2021/11/15 06:46:52;;;;;;;;;40.67;34.00;;;;;;;;4895254;29;45376;-84
2021/11/15 06:49:17;;;;;;;;;35.33;35.33;;;;;;;;4912241;28;45402;-84
2021/11/15 06:51:43;;;;;;;;;46.33;35.00;;;;;;;;4911382;29;46708;-85
2021/11/15 06:54:08;;;;;;;;;43.67;37.00;;;;;;;;4894936;29;45376;-84
2021/11/15 06:56:34;;;;;;;;;41.67;34.67;;;;;;;;4894951;29;45469;-84
2021/11/15 06:58:59;;;;;;;;;46.67;37.67;;;;;;;;4894998;29;45441;-85
2021/11/15 07:01:28;;;;;;;;;35.67;32.33;;;;;;;;4895693;29;46752;-85
2021/11/15 07:06:56;;;;;;;;;35.33;33.00;;;;;;;;4913898;29;45531;-85
2021/11/15 07:09:22;;;;;;;;;32.67;31.00;;;;;;;;4895849;29;45477;-84
2021/11/15 07:11:47;;;;;;;;;46.00;39.33;;;;;;;;4919857;28;45365;-85
2021/11/15 07:14:12;;;;;;;;;42.33;36.33;;;;;;;;4912340;28;45535;-85
2021/11/15 07:19:40;;;;;;;;;41.67;33.67;;;;;;;;4929864;28;45387;-84
2021/11/15 07:22:06;;;;;;;;;46.00;37.00;;;;;;;;4913680;28;47319;-84
2021/11/15 07:24:31;;;;;;;;;37.00;34.67;;;;;;;;4913580;28;45421;-85
2021/11/15 07:26:57;;;;;;;;;40.33;32.67;;;;;;;;4896190;28;45402;-84
2021/11/15 07:29:23;;;;;;;;;40.00;37.00;;;;;;;;4910912;28;44752;-84
2021/11/15 07:31:49;;;;;;;;;44.67;36.33;;;;;;;;4904775;29;47117;-83
2021/11/15 07:34:14;;;;;;;;;46.00;38.33;;;;;;;;4892125;28;45161;-83
2021/11/15 07:36:40;;;;;;;;;40.00;35.00;;;;;;;;4910365;29;45401;-84
2021/11/15 07:39:05;;;;;;;;;45.33;39.67;;;;;;;;4910996;29;45441;-84
2021/11/15 07:41:31;;;;;;;;;36.33;35.67;;;;;;;;4892928;29;47395;-83
2021/11/15 07:43:56;;;;;;;;;47.33;40.00;;;;;;;;4909769;29;45401;-84
2021/11/15 07:46:22;;;;;;;;;43.33;38.67;;;;;;;;4910317;29;45432;-83
2021/11/15 07:48:47;;;;;;;;;40.33;31.67;;;;;;;;4893813;28;45568;-84
2021/11/15 07:51:13;;;;;;;;;46.33;34.67;;;;;;;;4893754;28;46868;-83
2021/11/15 07:53:39;;;;;;;;;48.00;39.33;;;;;;;;4899002;29;45493;-83
2021/11/15 07:56:06;;;;;;;;;43.00;36.67;;;;;;;;4895070;28;45455;-83
2021/11/15 07:58:31;;;;;;;;;47.00;39.67;;;;;;;;4897003;28;44848;-83
2021/11/15 08:00:57;;;;;;;;;51.00;42.33;;;;;;;;4896588;29;47743;-82
2021/11/15 08:03:22;;;;;;;;;40.33;36.67;;;;;;;;4914527;29;45433;-82
2021/11/15 08:08:51;;;;;;;;;47.00;34.00;;;;;;;;4914222;29;45689;-84
2021/11/15 08:11:32;;;;;;;;;39.50;36.50;;;;;;;;4620841;28;8701128;-83
2021/11/15 08:13:58;;;;;;;;;36.33;34.67;;;;;;;;4898091;29;47338;-83
2021/11/15 08:16:25;;;;;;;;;46.67;36.67;;;;;;;;4915487;29;45321;-83
2021/11/15 08:18:50;;;;;;;;;37.67;34.00;;;;;;;;4910162;29;45628;-83
2021/11/15 08:21:19;;;;;;;;;43.00;34.67;;;;;;;;4901433;28;45401;-84
2021/11/15 08:23:57;;;;;;;;;37.33;33.33;;;;;;;;4898578;29;48073;-83
2021/11/15 08:26:48;;;;;;;;;41.67;34.33;;;;;;;;4899464;28;45451;-83
2021/11/15 08:29:18;;;;;;;;;42.33;33.00;;;;;;;;4899589;28;45406;-83
2021/11/15 08:31:46;;;;;;;;;35.67;28.33;;;;;;;;4899700;28;44939;-83
2021/11/15 08:34:20;;;;;;;;;29.67;25.00;;;;;;;;4914903;29;46240;-82
2021/11/15 08:36:50;;;;;;;;;37.00;33.00;;;;;;;;4916273;28;45551;-83
2021/11/15 08:39:19;;;;;;;;;42.33;35.33;;;;;;;;4927713;28;45513;-83
2021/11/15 08:41:55;;;;;;;;;42.00;31.33;;;;;;;;4897844;28;45163;-81
2021/11/15 08:44:20;;;;;;;;;42.67;35.00;;;;;;;;4899754;29;45656;-82
2021/11/15 08:46:47;;;;;;;;;44.67;32.67;;;;;;;;4899233;28;44919;-84
2021/11/15 08:49:16;;;;;;;;;43.00;34.67;;;;;;;;4899496;28;45338;-83
2021/11/15 08:51:47;;;;;;;;;48.67;36.00;;;;;;;;4907261;28;45391;-84
2021/11/15 08:54:22;;;;;;;;;40.33;33.33;;;;;;;;4917301;29;45628;-83
2021/11/15 08:56:56;;;;;;;;;44.00;32.33;;;;;;;;4896934;28;45572;-84
2021/11/15 08:59:21;;;;;;;;;37.33;34.33;;;;;;;;4895512;29;44887;-83
2021/11/15 09:01:49;;;;;;;;;33.67;29.00;;;;;;;;4913975;29;45446;-84
2021/11/15 09:04:14;;;;;;;;;29.33;27.33;;;;;;;;4893081;28;46715;-84
2021/11/15 09:06:41;;;;;;;;;34.33;29.67;;;;;;;;4902254;28;45417;-82
2021/11/15 09:09:20;;;;;;;;;42.00;33.00;;;;;;;;4896026;29;45809;-83
2021/11/15 09:11:47;;;;;;;;;38.33;35.00;;;;;;;;4897811;28;45687;-82
2021/11/15 09:14:13;;;;;;;;;39.00;32.00;;;;;;;;4914729;28;45606;-82
2021/11/15 09:16:38;;;;;;;;;42.67;33.33;;;;;;;;4908323;28;45479;-82
2021/11/15 09:19:04;;;;;;;;;35.67;33.67;;;;;;;;4902075;28;44898;-82
2021/11/15 09:21:30;;;;;;;;;35.00;32.67;;;;;;;;4903232;29;45658;-82
2021/11/15 09:23:55;;;;;;;;;31.00;26.33;;;;;;;;4909452;28;45368;-82
2021/11/15 09:26:26;;;;;;;;;44.00;37.67;;;;;;;;4913678;28;44732;-81
2021/11/15 09:28:51;;;;;;;;;39.67;33.67;;;;;;;;4911902;29;45702;-81
2021/11/15 09:31:20;;;;;;;;;38.33;32.67;;;;;;;;4896907;29;45472;-83
2021/11/15 09:33:45;;;;;;;;;35.67;31.67;;;;;;;;4894837;29;46727;-80
2021/11/15 09:36:10;;;;;;;;;28.33;27.67;;;;;;;;4895458;29;44817;-82
2021/11/15 09:38:39;;;;;;;;;34.33;26.67;;;;;;;;4896940;29;45494;-82
2021/11/15 09:41:05;;;;;;;;;36.33;30.67;;;;;;;;4910136;28;45494;-82
2021/11/15 09:43:36;;;;;;;;;35.00;30.00;;;;;;;;4917744;28;45795;-83
2021/11/15 09:46:10;;;;;;;;;35.33;29.33;;;;;;;;4896778;29;45363;-83
2021/11/15 09:48:37;;;;;;;;;35.00;30.00;;;;;;;;4918802;28;45469;-83
2021/11/15 09:51:03;;;;;;;;;35.00;31.67;;;;;;;;4912415;28;44891;-82
2021/11/15 09:53:30;;;;;;;;;37.00;32.00;;;;;;;;4910918;28;45505;-83
2021/11/15 09:55:58;;;;;;;;;36.00;28.00;;;;;;;;4901168;28;45582;-82
2021/11/15 09:58:23;;;;;;;;;33.00;30.00;;;;;;;;4896188;28;44985;-81
2021/11/15 10:00:49;;;;;;;;;41.67;33.00;;;;;;;;4916925;28;45794;-82
2021/11/15 10:03:17;;;;;;;;;35.67;30.00;;;;;;;;4909694;28;45166;-82
2021/11/15 10:05:46;;;;;;;;;18.67;17.33;;;;;;;;4919747;28;44778;-82
2021/11/15 10:08:18;;;;;;;;;30.33;29.33;;;;;;;;4906222;28;45556;-83
2021/11/15 10:11:06;;;;;;;;;36.33;28.67;;;;;;;;4894662;28;44873;-82
2021/11/15 10:13:35;;;;;;;;;22.00;22.00;;;;;;;;4899988;29;47176;-81
2021/11/15 10:16:04;;;;;;;;;40.00;33.67;;;;;;;;4881106;29;44861;-81
2021/11/15 10:18:40;;;;;;;;;32.67;29.00;;;;;;;;4902361;29;45379;-81
2021/11/15 10:21:28;;;;;;;;;29.33;28.00;;;;;;;;4889222;29;44924;-82
2021/11/15 10:24:02;;;;;;;;;37.00;29.67;;;;;;;;4884816;29;46356;-80
2021/11/15 10:26:31;;;;;;;;;38.33;33.00;;;;;;;;4884072;29;45425;-79
2021/11/15 10:28:59;;;;;;;;;37.33;29.00;;;;;;;;4884751;29;45927;-81
2021/11/15 10:31:32;;;;;;;;;29.33;26.33;;;;;;;;4888014;29;45401;-80
2021/11/15 10:33:58;;;;;;;;;21.67;19.33;;;;;;;;4880631;29;46358;-81
2021/11/15 10:36:42;;;;;;;;;29.00;25.33;;;;;;;;4879762;29;45452;-82
2021/11/15 10:39:08;;;;;;;;;28.67;28.33;;;;;;;;4894190;29;45401;-82
2021/11/15 10:41:33;;;;;;;;;24.00;19.67;;;;;;;;4877904;29;44925;-84
2021/11/15 10:43:59;;;;;;;;;36.00;33.00;;;;;;;;4896076;29;46651;-80
2021/11/15 10:46:33;;;;;;;;;30.00;27.33;;;;;;;;4879218;29;45365;-82
2021/11/15 10:49:00;;;;;;;;;24.33;21.00;;;;;;;;4883582;29;45306;-82
2021/11/15 10:51:43;;;;;;;;;33.67;29.33;;;;;;;;4877331;29;45414;-81
2021/11/15 10:54:32;;;;;;;;;41.67;30.33;;;;;;;;4890278;29;47165;-83
2021/11/15 10:57:15;;;;;;;;;22.33;20.67;;;;;;;;4866499;29;45581;-81
2021/11/15 10:59:42;;;;;;;;;31.00;28.00;;;;;;;;4883760;29;45606;-82
2021/11/15 11:02:28;;;;;;;;;27.67;24.33;;;;;;;;4896314;29;45690;-82
2021/11/15 11:05:04;;;;;;;;;29.00;26.67;;;;;;;;4898274;29;45371;-81
2021/11/15 11:07:31;;;;;;;;;29.00;24.33;;;;;;;;4898073;29;44732;-82
2021/11/15 11:10:22;;;;;;;;;31.67;28.67;;;;;;;;4888265;29;44790;-83
2021/11/15 11:13:04;;;;;;;;;21.00;19.67;;;;;;;;4915907;28;44859;-82
2021/11/15 11:15:56;;;;;;;;;32.67;25.33;;;;;;;;4912147;28;45589;-80
2021/11/15 11:26:28;;;;;;;;;27.67;25.33;;;;;;;;4915573;29;45258;-82
2021/11/15 11:28:58;;;;;;;;;36.00;28.33;;;;;;;;4881223;29;44907;-81
2021/11/15 11:31:27;;;;;;;;;35.00;28.00;;;;;;;;4882720;28;44984;-82
2021/11/15 11:33:52;;;;;;;;;40.00;30.33;;;;;;;;4904929;28;45357;-84
2021/11/15 11:36:23;;;;;;;;;41.33;34.00;;;;;;;;4899424;28;47601;-83
2021/11/15 11:38:48;;;;;;;;;28.33;24.67;;;;;;;;4900915;29;45409;-81
2021/11/15 11:41:17;;;;;;;;;28.67;26.67;;;;;;;;4896347;29;44870;-82
2021/11/15 11:43:43;;;;;;;;;31.67;26.33;;;;;;;;4899709;28;45320;-82
2021/11/15 11:46:13;;;;;;;;;32.00;29.67;;;;;;;;4901780;29;46696;-85
2021/11/15 11:48:46;;;;;;;;;32.67;27.67;;;;;;;;4897405;28;45443;-83
2021/11/15 11:51:14;;;;;;;;;38.00;32.00;;;;;;;;4901834;29;44840;-82
2021/11/15 11:57:03;;;;;;;;;37.67;32.33;;;;;;;;4845316;29;45544;-83
2021/11/15 12:00:06;;;;;;;;;36.00;34.67;;;;;;;;4850283;29;45740;-82
2021/11/15 12:02:36;;;;;;;;;37.67;30.00;;;;;;;;4846961;29;45478;-83
2021/11/15 12:05:10;;;;;;;;;29.67;24.33;;;;;;;;4842204;29;45551;-83
2021/11/15 12:07:39;;;;;;;;;45.33;37.00;;;;;;;;4853188;29;45665;-82
2021/11/15 12:10:09;;;;;;;;;40.33;36.33;;;;;;;;4837078;29;45469;-84
2021/11/15 12:12:49;;;;;;;;;37.33;30.00;;;;;;;;4854183;29;45569;-82
2021/11/15 12:15:34;;;;;;;;;33.33;31.00;;;;;;;;4857715;29;44835;-83
2021/11/15 12:18:20;;;;;;;;;41.67;34.67;;;;;;;;4845634;29;47139;-83
2021/11/15 12:23:51;;;;;;;;;40.00;36.00;;;;;;;;4853869;29;45842;-84
2021/11/15 12:26:46;;;;;;;;;;;;;;;;;;;;;
2021/11/15 12:29:39;;;;;;;;;32.00;26.00;;;;;;;;4820020;29;73776;-85
2021/11/15 12:37:56;;;;;;;;;45.67;39.00;;;;;;;;4932048;23;45470;-83
2021/11/15 12:40:45;;;;;;;;;38.67;35.33;;;;;;;;4882371;29;45171;-83
2021/11/15 12:43:15;;;;;;;;;34.67;29.00;;;;;;;;4867029;29;45413;-82
2021/11/15 12:46:09;;;;;;;;;38.00;34.33;;;;;;;;4882665;29;45218;-84
2021/11/15 12:48:35;;;;;;;;;43.67;36.00;;;;;;;;4861178;29;45405;-83
2021/11/15 12:51:15;;;;;;;;;45.33;33.67;;;;;;;;4882553;29;45519;-83
2021/11/15 12:53:44;;;;;;;;;40.33;34.33;;;;;;;;4864794;29;44957;-82
2021/11/15 12:56:11;;;;;;;;;45.33;37.67;;;;;;;;4880936;29;44968;-86
2021/11/15 12:58:42;;;;;;;;;44.33;34.00;;;;;;;;4880137;29;45726;-84
2021/11/15 13:01:09;;;;;;;;;46.67;39.67;;;;;;;;4863891;29;46838;-83
2021/11/15 13:03:34;;;;;;;;;37.33;33.67;;;;;;;;4865766;29;45436;-86
2021/11/15 13:06:00;;;;;;;;;34.00;31.00;;;;;;;;4864475;29;45438;-84
2021/11/15 13:08:26;;;;;;;;;39.33;33.33;;;;;;;;4863538;29;45453;-86
2021/11/15 13:10:53;;;;;;;;;27.33;25.67;;;;;;;;4877819;29;47366;-82
2021/11/15 13:13:19;;;;;;;;;51.00;41.00;;;;;;;;4878681;29;45539;-82
2021/11/15 13:15:45;;;;;;;;;37.67;33.67;;;;;;;;4879814;29;45263;-82
2021/11/15 13:18:12;;;;;;;;;44.00;37.67;;;;;;;;4863349;29;45454;-82
2021/11/15 13:20:42;;;;;;;;;40.00;36.00;;;;;;;;4855209;29;46745;-83
2021/11/15 13:23:30;;;;;;;;;45.67;38.00;;;;;;;;4880793;29;44900;-83
2021/11/15 13:26:20;;;;;;;;;40.67;35.67;;;;;;;;4861234;29;45339;-82
2021/11/15 13:28:45;;;;;;;;;43.33;36.00;;;;;;;;4861864;29;45523;-83
2021/11/15 13:31:11;;;;;;;;;41.00;36.00;;;;;;;;4873393;29;47539;-84
2021/11/15 13:33:37;;;;;;;;;47.00;38.00;;;;;;;;4890869;23;45223;-79
2021/11/15 13:36:03;;;;;;;;;40.67;38.00;;;;;;;;4900436;29;44819;-81
2021/11/15 13:38:28;;;;;;;;;43.33;35.33;;;;;;;;4880851;28;45478;-81
2021/11/15 13:40:54;;;;;;;;;39.33;34.33;;;;;;;;4877032;29;47253;-80
2021/11/15 13:43:23;;;;;;;;;29.00;21.00;;;;;;;;4897544;29;45473;-80
2021/11/15 13:45:58;;;;;;;;;32.00;30.00;;;;;;;;4885931;29;44783;-80
2021/11/15 13:48:24;;;;;;;;;38.00;33.33;;;;;;;;4875225;29;45384;-80
2021/11/15 13:50:51;;;;;;;;;42.67;35.67;;;;;;;;4893594;29;45146;-80
2021/11/15 13:53:19;;;;;;;;;42.67;32.33;;;;;;;;4865364;29;44998;-83
2021/11/15 13:55:45;;;;;;;;;36.00;34.33;;;;;;;;4898583;29;45317;-81
2021/11/15 13:58:11;;;;;;;;;32.33;29.33;;;;;;;;4912810;29;44919;-83
2021/11/15 14:00:36;;;;;;;;;31.67;29.67;;;;;;;;4885260;29;47744;-83
2021/11/15 14:03:01;;;;;;;;;37.33;30.33;;;;;;;;4893492;29;45302;-82
2021/11/15 14:05:27;;;;;;;;;36.33;31.33;;;;;;;;4895042;29;44941;-82
2021/11/15 14:07:52;;;;;;;;;34.00;30.00;;;;;;;;4880014;29;45403;-82
2021/11/15 14:10:22;;;;;;;;;33.00;29.00;;;;;;;;4864476;29;47178;-82
2021/11/15 14:12:51;;;;;;;;;34.67;30.33;;;;;;;;4896210;29;44880;-82
2021/11/15 14:15:16;;;;;;;;;35.00;30.00;;;;;;;;4898091;29;44766;-82
2021/11/15 14:17:43;;;;;;;;;36.00;31.67;;;;;;;;4896887;29;45286;-82
2021/11/15 14:20:10;;;;;;;;;36.00;33.00;;;;;;;;4879665;29;47105;-84
2021/11/15 14:22:38;;;;;;;;;28.67;25.33;;;;;;;;4897016;29;45430;-82
2021/11/15 14:25:33;;;;;;;;;27.33;25.00;;;;;;;;4896333;29;45456;-82
2021/11/15 14:27:59;;;;;;;;;37.33;30.67;;;;;;;;4876307;29;45418;-81
2021/11/15 14:30:33;;;;;;;;;27.00;26.67;;;;;;;;4898767;29;45188;-82
2021/11/15 14:33:14;;;;;;;;;42.00;35.33;;;;;;;;4996303;23;45971;-82
2021/11/15 14:35:43;;;;;;;;;29.00;26.33;;;;;;;;4881345;29;44931;-83
2021/11/15 14:38:10;;;;;;;;;33.00;31.33;;;;;;;;4901770;28;45377;-82
2021/11/15 14:40:35;;;;;;;;;36.33;32.00;;;;;;;;4899766;29;47718;-83
2021/11/15 14:43:01;;;;;;;;;33.33;29.67;;;;;;;;4899445;28;45449;-82
2021/11/15 14:45:26;;;;;;;;;35.67;30.33;;;;;;;;4917251;29;46053;-81
2021/11/15 14:47:52;;;;;;;;;34.00;27.67;;;;;;;;4894888;29;45678;-81
2021/11/15 14:50:20;;;;;;;;;32.00;26.33;;;;;;;;4915305;29;46842;-82
2021/11/15 14:52:46;;;;;;;;;26.00;25.67;;;;;;;;4883118;29;45440;-80
2021/11/15 14:58:15;;;;;;;;;33.00;26.67;;;;;;;;4917934;28;44807;-81
2021/11/15 15:00:41;;;;;;;;;25.67;23.67;;;;;;;;4899530;29;47818;-82
2021/11/15 15:03:09;;;;;;;;;36.00;30.00;;;;;;;;4896070;29;45321;-81
2021/11/15 15:05:35;;;;;;;;;28.00;27.33;;;;;;;;4893773;29;44749;-81
2021/11/15 15:08:02;;;;;;;;;35.00;29.00;;;;;;;;4898517;29;45378;-83
2021/11/15 15:10:28;;;;;;;;;35.00;29.00;;;;;;;;4894435;29;47163;-81
2021/11/15 15:12:56;;;;;;;;;38.00;34.33;;;;;;;;4897544;29;45485;-81